createdAt,value
2022-11-30T00:00:26.636Z,14.50
2022-11-30T00:01:13.976Z,14.75
2022-11-30T00:01:55.831Z,14.80
2022-11-30T00:02:37.631Z,14.77
2022-11-30T00:03:19.681Z,14.35
2022-11-30T00:04:01.370Z,15.18
2022-11-30T00:04:43.030Z,19.42
2022-11-30T00:05:25.376Z,18.40
2022-11-30T00:06:09.655Z,16.15
2022-11-30T00:06:56.736Z,15.93
2022-11-30T00:07:39.070Z,16.65
2022-11-30T00:08:21.147Z,16.23
2022-11-30T00:09:02.741Z,17.58
2022-11-30T00:09:44.436Z,15.70
2022-11-30T00:10:26.109Z,15.07
2022-11-30T00:11:12.841Z,14.90
2022-11-30T00:11:54.469Z,14.73
2022-11-30T00:12:36.082Z,14.77
2022-11-30T00:13:17.709Z,14.38
2022-11-30T00:13:59.838Z,14.63
2022-11-30T00:14:41.495Z,14.40
2022-11-30T00:15:23.195Z,15.35
2022-11-30T00:16:05.506Z,15.65
2022-11-30T00:16:47.334Z,15.02
2022-11-30T00:17:29.224Z,15.10
2022-11-30T00:18:10.863Z,15.93
2022-11-30T00:18:52.553Z,15.65
2022-11-30T00:19:34.261Z,15.00
2022-11-30T00:20:16.385Z,15.00
2022-11-30T00:21:02.076Z,15.68
2022-11-30T00:21:43.843Z,15.23
2022-11-30T00:22:25.574Z,14.45
2022-11-30T00:23:09.962Z,14.80
2022-11-30T00:23:51.638Z,14.77
2022-11-30T00:24:33.278Z,14.85
2022-11-30T00:25:15.425Z,14.48
2022-11-30T00:26:01.447Z,15.23
2022-11-30T00:26:43.171Z,14.48
2022-11-30T00:27:25.089Z,13.98
2022-11-30T00:28:06.841Z,14.55
2022-11-30T00:28:48.676Z,14.52
2022-11-30T00:29:30.415Z,14.27
2022-11-30T00:30:12.721Z,14.70
2022-11-30T00:31:00.562Z,14.52
2022-11-30T00:31:42.285Z,14.23
2022-11-30T00:32:25.040Z,15.52
2022-11-30T00:33:06.669Z,13.75
2022-11-30T00:33:48.393Z,13.48
2022-11-30T00:34:30.071Z,14.10
2022-11-30T00:35:11.749Z,14.48
2022-11-30T00:35:57.997Z,14.23
2022-11-30T00:36:39.671Z,14.98
2022-11-30T00:37:21.808Z,15.23
2022-11-30T00:38:03.581Z,14.75
2022-11-30T00:38:46.105Z,16.25
2022-11-30T00:39:32.351Z,16.27
2022-11-30T00:40:17.063Z,14.93
2022-11-30T00:40:59.467Z,14.82
2022-11-30T00:41:41.107Z,15.43
2022-11-30T00:42:22.772Z,14.77
2022-11-30T00:43:04.369Z,15.05
2022-11-30T00:43:46.210Z,15.25
2022-11-30T00:44:27.871Z,14.85
2022-11-30T00:45:10.046Z,14.70
2022-11-30T00:45:51.790Z,14.77
2022-11-30T00:46:33.616Z,14.15
2022-11-30T00:47:15.338Z,13.88
2022-11-30T00:47:57.034Z,14.30
2022-11-30T00:48:39.722Z,15.55
2022-11-30T00:49:21.423Z,15.25
2022-11-30T00:50:04.299Z,14.25
2022-11-30T00:50:46.037Z,15.20
2022-11-30T00:51:27.687Z,15.45
2022-11-30T00:52:09.396Z,15.55
2022-11-30T00:52:51.004Z,15.95
2022-11-30T00:53:33.142Z,15.82
2022-11-30T00:54:14.888Z,15.50
2022-11-30T00:54:56.740Z,15.88
2022-11-30T00:55:38.428Z,15.63
2022-11-30T00:56:20.107Z,15.95
2022-11-30T00:57:01.935Z,15.07
2022-11-30T00:57:44.543Z,15.45
2022-11-30T00:58:26.229Z,15.43
2022-11-30T00:59:07.907Z,15.45
2022-11-30T00:59:49.531Z,15.20
2022-11-30T01:00:31.270Z,15.75
2022-11-30T01:01:12.942Z,15.15
2022-11-30T01:01:55.233Z,16.35
2022-11-30T01:02:36.964Z,16.23
2022-11-30T01:03:18.634Z,15.15
2022-11-30T01:04:00.349Z,15.05
2022-11-30T01:04:42.029Z,14.60
2022-11-30T01:05:23.655Z,15.73
2022-11-30T01:06:07.948Z,15.90
2022-11-30T01:06:49.660Z,14.55
2022-11-30T01:07:31.430Z,14.63
2022-11-30T01:08:13.267Z,14.45
2022-11-30T01:08:55.037Z,14.90
2022-11-30T01:09:36.824Z,15.15
2022-11-30T01:10:18.526Z,14.68
2022-11-30T01:11:17.989Z,15.88
2022-11-30T01:11:59.688Z,15.75
2022-11-30T01:12:41.794Z,14.93
2022-11-30T01:13:24.373Z,15.38
2022-11-30T01:14:06.100Z,15.68
2022-11-30T01:14:48.043Z,15.60
2022-11-30T01:15:31.489Z,16.08
2022-11-30T01:16:16.890Z,16.05
2022-11-30T01:16:58.744Z,15.63
2022-11-30T01:17:40.454Z,15.50
2022-11-30T01:18:22.585Z,16.10
2022-11-30T01:19:04.315Z,16.95
2022-11-30T01:19:46.016Z,16.30
2022-11-30T01:20:27.712Z,15.50
2022-11-30T01:21:11.512Z,14.90
2022-11-30T01:21:53.201Z,15.40
2022-11-30T01:22:35.377Z,15.48
2022-11-30T01:23:17.140Z,16.25
2022-11-30T01:23:58.882Z,16.48
2022-11-30T01:24:40.540Z,16.27
2022-11-30T01:25:23.148Z,15.52
2022-11-30T01:26:14.318Z,15.82
2022-11-30T01:26:55.954Z,16.67
2022-11-30T01:27:38.668Z,17.15
2022-11-30T01:28:20.281Z,16.27
2022-11-30T01:29:01.955Z,16.42
2022-11-30T01:29:43.707Z,17.40
2022-11-30T01:30:25.359Z,18.10
2022-11-30T01:31:09.410Z,18.00
2022-11-30T01:31:51.225Z,16.80
2022-11-30T01:32:32.934Z,16.65
2022-11-30T01:33:14.622Z,16.20
2022-11-30T01:33:56.400Z,17.20
2022-11-30T01:34:38.157Z,17.75
2022-11-30T01:35:19.824Z,17.10
2022-11-30T01:36:13.842Z,17.20
2022-11-30T01:36:55.602Z,17.27
2022-11-30T01:37:37.391Z,16.45
2022-11-30T01:38:19.318Z,15.68
2022-11-30T01:39:01.092Z,16.60
2022-11-30T01:39:42.796Z,16.45
2022-11-30T01:40:24.607Z,16.95
2022-11-30T01:41:07.462Z,15.70
2022-11-30T01:41:49.225Z,16.75
2022-11-30T01:42:32.935Z,16.90
2022-11-30T01:43:20.273Z,17.80
2022-11-30T01:44:07.429Z,16.05
2022-11-30T01:44:51.841Z,16.17
2022-11-30T01:45:33.542Z,15.75
2022-11-30T01:46:33.948Z,16.45
2022-11-30T01:47:16.172Z,16.50
2022-11-30T01:47:58.007Z,14.60
2022-11-30T01:48:39.859Z,15.07
2022-11-30T01:49:29.632Z,16.13
2022-11-30T01:50:19.573Z,15.48
2022-11-30T01:51:01.480Z,15.00
2022-11-30T01:51:58.029Z,15.38
2022-11-30T01:52:43.528Z,15.18
2022-11-30T01:53:25.694Z,15.80
2022-11-30T01:54:12.047Z,15.63
2022-11-30T01:55:09.663Z,15.18
2022-11-30T01:55:51.346Z,15.55
2022-11-30T01:56:33.526Z,15.68
2022-11-30T01:57:24.249Z,15.73
2022-11-30T01:58:27.945Z,16.08
2022-11-30T01:59:10.672Z,17.85
2022-11-30T01:59:54.388Z,17.10
2022-11-30T02:00:36.052Z,16.73
2022-11-30T02:01:17.877Z,16.33
2022-11-30T02:01:59.670Z,16.33
2022-11-30T02:02:54.154Z,15.55
2022-11-30T02:03:43.697Z,16.27
2022-11-30T02:04:29.436Z,15.90
2022-11-30T02:05:12.637Z,16.33
2022-11-30T02:05:54.869Z,16.38
2022-11-30T02:06:36.522Z,16.48
2022-11-30T02:07:18.244Z,16.33
2022-11-30T02:08:00.915Z,15.65
2022-11-30T02:08:42.870Z,15.75
2022-11-30T02:09:26.900Z,15.35
2022-11-30T02:10:17.153Z,15.45
2022-11-30T02:11:06.011Z,16.17
2022-11-30T02:11:48.476Z,15.85
2022-11-30T02:12:40.460Z,15.73
2022-11-30T02:13:35.714Z,15.68
2022-11-30T02:14:33.662Z,15.40
2022-11-30T02:15:22.737Z,15.73
2022-11-30T02:16:27.615Z,16.08
2022-11-30T02:17:31.312Z,16.08
2022-11-30T02:18:19.504Z,15.88
2022-11-30T02:19:16.049Z,15.57
2022-11-30T02:20:16.159Z,15.50
2022-11-30T02:21:23.739Z,14.15
2022-11-30T02:22:23.890Z,14.50
2022-11-30T02:23:05.579Z,14.80
2022-11-30T02:23:49.993Z,15.85
2022-11-30T02:24:34.287Z,15.48
2022-11-30T02:25:28.857Z,15.82
2022-11-30T02:26:31.440Z,15.18
2022-11-30T02:27:30.110Z,14.40
2022-11-30T02:28:39.292Z,13.90
2022-11-30T02:29:29.331Z,13.70
2022-11-30T02:30:16.630Z,13.43
2022-11-30T02:31:02.073Z,14.25
2022-11-30T02:32:02.133Z,13.77
2022-11-30T02:32:53.973Z,14.50
2022-11-30T02:33:35.885Z,13.93
2022-11-30T02:34:21.977Z,13.45
2022-11-30T02:35:06.138Z,13.65
2022-11-30T02:35:55.150Z,13.93
2022-11-30T02:36:37.640Z,13.90
2022-11-30T02:37:20.429Z,13.93
2022-11-30T02:38:04.105Z,14.25
2022-11-30T02:38:46.182Z,14.43
2022-11-30T02:39:27.893Z,14.25
2022-11-30T02:40:13.372Z,14.05
2022-11-30T02:40:55.511Z,14.40
2022-11-30T02:41:39.157Z,14.45
2022-11-30T02:42:21.023Z,15.40
2022-11-30T02:43:04.970Z,13.77
2022-11-30T02:43:46.889Z,14.73
2022-11-30T02:44:29.553Z,15.90
2022-11-30T02:45:12.037Z,16.00
2022-11-30T02:46:12.116Z,15.02
2022-11-30T02:47:04.960Z,14.55
2022-11-30T02:47:55.218Z,14.85
2022-11-30T02:48:58.412Z,14.77
2022-11-30T02:50:06.445Z,14.30
2022-11-30T02:50:52.749Z,14.45
2022-11-30T02:51:38.069Z,14.30
2022-11-30T02:52:24.046Z,14.82
2022-11-30T02:53:08.147Z,14.70
2022-11-30T02:53:50.024Z,15.15
2022-11-30T02:54:32.947Z,14.18
2022-11-30T02:55:17.546Z,14.18
2022-11-30T02:55:59.207Z,13.60
2022-11-30T02:56:40.926Z,14.15
2022-11-30T02:57:22.571Z,13.85
2022-11-30T02:58:04.276Z,14.02
2022-11-30T02:58:46.647Z,14.32
2022-11-30T02:59:28.944Z,14.32
2022-11-30T03:00:12.180Z,15.13
2022-11-30T03:00:53.829Z,14.70
2022-11-30T03:01:37.814Z,14.48
2022-11-30T03:02:19.592Z,14.95
2022-11-30T03:03:01.285Z,13.93
2022-11-30T03:03:43.007Z,13.77
2022-11-30T03:04:24.714Z,14.15
2022-11-30T03:05:07.458Z,14.68
2022-11-30T03:05:49.131Z,14.85
2022-11-30T03:06:30.824Z,13.48
2022-11-30T03:07:12.643Z,13.68
2022-11-30T03:07:54.402Z,13.95
2022-11-30T03:08:36.149Z,13.35
2022-11-30T03:09:17.853Z,13.48
2022-11-30T03:10:00.046Z,13.90
2022-11-30T03:10:41.741Z,14.13
2022-11-30T03:11:23.482Z,13.25
2022-11-30T03:12:05.414Z,14.50
2022-11-30T03:12:47.231Z,14.07
2022-11-30T03:13:30.929Z,14.60
2022-11-30T03:14:12.688Z,14.13
2022-11-30T03:14:54.332Z,13.70
2022-11-30T03:15:36.027Z,15.00
2022-11-30T03:16:17.907Z,14.20
2022-11-30T03:16:59.623Z,14.20
2022-11-30T03:17:41.411Z,14.52
2022-11-30T03:18:23.203Z,14.07
2022-11-30T03:19:05.565Z,14.25
2022-11-30T03:19:47.295Z,14.32
2022-11-30T03:20:28.977Z,13.93
2022-11-30T03:21:12.298Z,13.70
2022-11-30T03:21:53.985Z,14.80
2022-11-30T03:22:35.807Z,13.35
2022-11-30T03:23:17.529Z,13.50
2022-11-30T03:23:59.223Z,14.02
2022-11-30T03:24:40.914Z,13.90
2022-11-30T03:25:22.576Z,13.80
2022-11-30T03:26:05.925Z,13.55
2022-11-30T03:26:47.901Z,13.40
2022-11-30T03:27:29.661Z,13.30
2022-11-30T03:28:11.339Z,13.50
2022-11-30T03:28:52.961Z,13.75
2022-11-30T03:29:34.680Z,13.05
2022-11-30T03:30:17.193Z,14.63
2022-11-30T03:30:59.051Z,14.75
2022-11-30T03:31:40.763Z,13.18
2022-11-30T03:32:22.440Z,13.60
2022-11-30T03:33:04.254Z,14.13
2022-11-30T03:33:45.989Z,13.45
2022-11-30T03:34:28.594Z,12.70
2022-11-30T03:35:10.206Z,12.68
2022-11-30T03:36:03.052Z,13.55
2022-11-30T03:36:44.756Z,12.93
2022-11-30T03:37:26.559Z,13.25
2022-11-30T03:38:08.446Z,12.88
2022-11-30T03:38:50.677Z,12.50
2022-11-30T03:39:32.356Z,13.45
2022-11-30T03:40:14.099Z,12.57
2022-11-30T03:41:02.746Z,13.48
2022-11-30T03:41:44.498Z,12.38
2022-11-30T03:42:26.320Z,13.02
2022-11-30T03:43:08.058Z,13.75
2022-11-30T03:43:49.730Z,12.80
2022-11-30T03:44:31.360Z,12.90
2022-11-30T03:45:13.135Z,13.40
2022-11-30T03:45:55.118Z,12.02
2022-11-30T03:46:37.022Z,11.95
2022-11-30T03:47:18.888Z,13.02
2022-11-30T03:48:00.709Z,12.82
2022-11-30T03:48:42.480Z,12.93
2022-11-30T03:49:24.121Z,13.20
2022-11-30T03:50:06.558Z,13.90
2022-11-30T03:50:50.052Z,12.88
2022-11-30T03:51:31.756Z,13.57
2022-11-30T03:52:13.433Z,13.60
2022-11-30T03:52:55.081Z,13.65
2022-11-30T03:53:37.014Z,14.70
2022-11-30T03:54:18.661Z,13.50
2022-11-30T03:55:00.259Z,13.45
2022-11-30T03:55:41.903Z,13.10
2022-11-30T03:56:24.279Z,12.45
2022-11-30T03:57:06.016Z,13.50
2022-11-30T03:57:47.722Z,12.98
2022-11-30T03:58:30.022Z,13.15
2022-11-30T03:59:11.697Z,13.80
2022-11-30T03:59:53.395Z,14.35
2022-11-30T04:00:35.244Z,13.95
2022-11-30T04:01:22.205Z,13.93
2022-11-30T04:02:03.947Z,14.05
2022-11-30T04:02:45.699Z,14.73
2022-11-30T04:03:28.004Z,14.60
2022-11-30T04:04:11.453Z,14.90
2022-11-30T04:04:53.213Z,15.27
2022-11-30T04:05:34.865Z,14.77
2022-11-30T04:06:16.888Z,14.25
2022-11-30T04:06:58.664Z,15.02
2022-11-30T04:07:40.479Z,13.93
2022-11-30T04:08:22.390Z,14.07
2022-11-30T04:09:04.168Z,14.65
2022-11-30T04:09:45.928Z,14.18
2022-11-30T04:10:27.622Z,14.23
2022-11-30T04:11:09.827Z,13.75
2022-11-30T04:11:51.532Z,12.95
2022-11-30T04:12:33.234Z,14.63
2022-11-30T04:13:14.896Z,14.55
2022-11-30T04:13:56.611Z,13.50
2022-11-30T04:14:38.267Z,13.45
2022-11-30T04:15:19.979Z,13.00
2022-11-30T04:16:02.086Z,12.75
2022-11-30T04:16:43.816Z,12.98
2022-11-30T04:17:25.480Z,13.75
2022-11-30T04:18:07.141Z,13.60
2022-11-30T04:18:48.814Z,13.27
2022-11-30T04:19:30.480Z,13.50
2022-11-30T04:20:12.289Z,13.50
2022-11-30T04:20:55.770Z,12.73
2022-11-30T04:21:37.507Z,12.77
2022-11-30T04:22:19.183Z,12.82
2022-11-30T04:23:00.835Z,12.77
2022-11-30T04:23:42.551Z,13.93
2022-11-30T04:24:24.222Z,12.80
2022-11-30T04:25:06.489Z,13.57
2022-11-30T04:25:48.333Z,14.43
2022-11-30T04:26:29.960Z,12.95
2022-11-30T04:27:11.583Z,13.45
2022-11-30T04:27:53.153Z,12.45
2022-11-30T04:28:35.294Z,13.00
2022-11-30T04:29:16.928Z,13.25
2022-11-30T04:29:59.664Z,13.10
2022-11-30T04:30:41.580Z,12.43
2022-11-30T04:31:23.286Z,12.07
2022-11-30T04:32:05.034Z,13.40
2022-11-30T04:32:46.644Z,14.25
2022-11-30T04:33:28.552Z,13.55
2022-11-30T04:34:10.198Z,13.65
2022-11-30T04:34:51.806Z,12.85
2022-11-30T04:35:33.897Z,12.60
2022-11-30T04:36:19.675Z,12.55
2022-11-30T04:37:01.526Z,11.68
2022-11-30T04:37:43.693Z,12.70
2022-11-30T04:38:26.333Z,11.48
2022-11-30T04:39:07.919Z,12.48
2022-11-30T04:39:49.602Z,12.20
2022-11-30T04:40:31.395Z,12.25
2022-11-30T04:41:13.269Z,12.45
2022-11-30T04:41:54.940Z,11.73
2022-11-30T04:42:36.627Z,13.52
2022-11-30T04:43:18.635Z,14.27
2022-11-30T04:44:00.264Z,12.05
2022-11-30T04:44:41.980Z,10.98
2022-11-30T04:45:23.653Z,11.48
2022-11-30T04:46:05.911Z,12.65
2022-11-30T04:46:47.749Z,11.40
2022-11-30T04:47:29.635Z,11.13
2022-11-30T04:48:11.763Z,10.60
2022-11-30T04:48:53.417Z,11.85
2022-11-30T04:49:35.072Z,11.68
2022-11-30T04:50:16.808Z,10.52
2022-11-30T04:51:02.951Z,11.35
2022-11-30T04:51:44.636Z,11.57
2022-11-30T04:52:26.396Z,10.70
2022-11-30T04:53:08.711Z,11.38
2022-11-30T04:53:50.437Z,11.65
2022-11-30T04:54:32.072Z,11.80
2022-11-30T04:55:13.782Z,11.20
2022-11-30T04:55:55.416Z,10.77
2022-11-30T04:56:37.219Z,11.55
2022-11-30T04:57:19.483Z,10.55
2022-11-30T04:58:01.130Z,10.88
2022-11-30T04:58:42.807Z,11.88
2022-11-30T04:59:24.591Z,11.38
2022-11-30T05:00:06.986Z,12.20
2022-11-30T05:00:48.804Z,11.77
2022-11-30T05:01:30.703Z,12.05
2022-11-30T05:02:12.353Z,11.23
2022-11-30T05:02:56.396Z,10.57
2022-11-30T05:03:38.111Z,10.73
2022-11-30T05:04:19.847Z,10.23
2022-11-30T05:05:01.623Z,10.90
2022-11-30T05:05:43.221Z,11.00
2022-11-30T05:06:24.858Z,10.70
2022-11-30T05:07:06.850Z,11.50
2022-11-30T05:07:57.282Z,10.93
2022-11-30T05:08:39.028Z,11.02
2022-11-30T05:09:20.630Z,11.38
2022-11-30T05:10:02.966Z,11.02
2022-11-30T05:10:48.833Z,10.63
2022-11-30T05:11:33.426Z,11.15
2022-11-30T05:12:15.194Z,11.38
2022-11-30T05:12:57.245Z,11.60
2022-11-30T05:13:38.907Z,11.55
2022-11-30T05:14:20.527Z,11.85
2022-11-30T05:15:02.215Z,11.45
2022-11-30T05:15:43.819Z,11.57
2022-11-30T05:16:25.555Z,11.50
2022-11-30T05:17:07.267Z,10.90
2022-11-30T05:17:48.934Z,11.00
2022-11-30T05:18:31.901Z,10.60
2022-11-30T05:19:14.662Z,11.50
2022-11-30T05:19:56.317Z,11.30
2022-11-30T05:20:37.993Z,11.13
2022-11-30T05:21:19.825Z,11.13
2022-11-30T05:22:01.555Z,10.70
2022-11-30T05:22:43.287Z,11.27
2022-11-30T05:23:25.058Z,11.07
2022-11-30T05:24:07.318Z,11.75
2022-11-30T05:24:49.185Z,11.40
2022-11-30T05:25:31.013Z,11.20
2022-11-30T05:26:12.900Z,11.00
2022-11-30T05:26:54.524Z,11.32
2022-11-30T05:27:36.576Z,10.68
2022-11-30T05:28:18.439Z,11.50
2022-11-30T05:29:00.087Z,10.57
2022-11-30T05:29:41.724Z,11.70
2022-11-30T05:30:24.311Z,11.40
2022-11-30T05:31:06.123Z,10.57
2022-11-30T05:31:47.843Z,10.23
2022-11-30T05:32:29.550Z,10.68
2022-11-30T05:33:11.749Z,10.80
2022-11-30T05:33:54.207Z,10.95
2022-11-30T05:34:49.611Z,10.25
2022-11-30T05:35:33.255Z,11.25
2022-11-30T05:36:14.979Z,11.02
2022-11-30T05:36:56.619Z,9.85
2022-11-30T05:37:38.368Z,10.10
2022-11-30T05:38:20.062Z,10.35
2022-11-30T05:39:01.760Z,10.48
2022-11-30T05:39:43.425Z,11.98
2022-11-30T05:40:27.863Z,11.45
2022-11-30T05:41:09.600Z,12.30
2022-11-30T05:41:51.370Z,11.82
2022-11-30T05:42:33.206Z,11.32
2022-11-30T05:43:14.996Z,11.27
2022-11-30T05:43:56.951Z,12.38
2022-11-30T05:44:38.687Z,11.23
2022-11-30T05:45:20.352Z,11.30
2022-11-30T05:46:04.432Z,11.70
2022-11-30T05:46:46.241Z,11.43
2022-11-30T05:47:27.940Z,11.27
2022-11-30T05:48:09.659Z,11.85
2022-11-30T05:48:51.375Z,12.07
2022-11-30T05:49:33.075Z,10.90
2022-11-30T05:50:14.939Z,11.40
2022-11-30T05:51:15.372Z,10.77
2022-11-30T05:51:57.156Z,11.15
2022-11-30T05:52:38.783Z,11.00
2022-11-30T05:53:20.496Z,10.80
2022-11-30T05:54:02.104Z,10.95
2022-11-30T05:54:43.718Z,10.63
2022-11-30T05:55:25.471Z,11.38
2022-11-30T05:56:10.596Z,11.57
2022-11-30T05:56:54.952Z,11.40
2022-11-30T05:57:40.569Z,11.05
2022-11-30T05:58:22.233Z,11.55
2022-11-30T05:59:03.856Z,11.25
2022-11-30T05:59:45.596Z,11.93
2022-11-30T06:00:27.279Z,11.70
2022-11-30T06:01:16.860Z,11.38
2022-11-30T06:01:58.707Z,11.57
2022-11-30T06:02:40.563Z,12.10
2022-11-30T06:03:22.512Z,12.65
2022-11-30T06:04:08.876Z,12.07
2022-11-30T06:04:50.789Z,12.73
2022-11-30T06:05:35.214Z,12.00
2022-11-30T06:06:17.673Z,11.70
2022-11-30T06:06:59.484Z,12.00
2022-11-30T06:07:41.539Z,12.32
2022-11-30T06:08:23.653Z,12.70
2022-11-30T06:09:05.491Z,12.45
2022-11-30T06:09:47.130Z,12.70
2022-11-30T06:10:28.830Z,12.77
2022-11-30T06:11:10.738Z,12.80
2022-11-30T06:11:52.419Z,12.32
2022-11-30T06:12:34.123Z,11.88
2022-11-30T06:13:15.817Z,12.32
2022-11-30T06:13:57.460Z,12.20
2022-11-30T06:14:39.173Z,11.68
2022-11-30T06:15:20.845Z,12.50
2022-11-30T06:16:04.172Z,11.50
2022-11-30T06:16:46.055Z,11.55
2022-11-30T06:17:27.779Z,11.60
2022-11-30T06:18:12.168Z,11.77
2022-11-30T06:18:53.851Z,11.80
2022-11-30T06:19:35.477Z,10.75
2022-11-30T06:20:17.261Z,11.38
2022-11-30T06:21:04.156Z,11.00
2022-11-30T06:21:45.803Z,11.43
2022-11-30T06:22:27.550Z,12.05
2022-11-30T06:23:09.266Z,11.35
2022-11-30T06:23:50.948Z,11.65
2022-11-30T06:24:32.641Z,12.10
2022-11-30T06:25:14.949Z,12.43
2022-11-30T06:25:56.801Z,13.20
2022-11-30T06:26:38.545Z,12.45
2022-11-30T06:27:20.222Z,13.30
2022-11-30T06:28:01.878Z,13.13
2022-11-30T06:28:47.890Z,14.27
2022-11-30T06:29:30.003Z,14.10
2022-11-30T06:30:12.348Z,13.57
2022-11-30T06:30:58.521Z,13.75
2022-11-30T06:31:40.390Z,13.52
2022-11-30T06:32:22.071Z,12.60
2022-11-30T06:33:04.040Z,13.00
2022-11-30T06:33:45.683Z,12.65
2022-11-30T06:34:27.345Z,12.38
2022-11-30T06:35:09.287Z,11.95
2022-11-30T06:35:51.372Z,12.15
2022-11-30T06:36:36.297Z,12.00
2022-11-30T06:37:18.297Z,12.73
2022-11-30T06:38:00.556Z,12.20
2022-11-30T06:38:42.214Z,11.82
2022-11-30T06:39:49.935Z,12.35
2022-11-30T06:40:25.503Z,11.63
2022-11-30T06:41:09.922Z,12.45
2022-11-30T06:41:54.445Z,11.27
2022-11-30T06:42:37.316Z,12.05
2022-11-30T06:43:19.181Z,11.35
2022-11-30T06:44:00.789Z,11.88
2022-11-30T06:44:42.476Z,12.43
2022-11-30T06:45:24.157Z,12.15
2022-11-30T06:46:07.335Z,12.73
2022-11-30T06:46:49.232Z,11.55
2022-11-30T06:47:30.935Z,11.30
2022-11-30T06:48:13.369Z,11.20
2022-11-30T06:48:55.582Z,11.80
2022-11-30T06:49:37.458Z,11.50
2022-11-30T06:50:19.146Z,10.93
2022-11-30T06:51:01.632Z,11.52
2022-11-30T06:51:43.775Z,11.30
2022-11-30T06:52:25.706Z,11.38
2022-11-30T06:53:07.440Z,11.23
2022-11-30T06:53:49.228Z,11.13
2022-11-30T06:54:30.899Z,11.77
2022-11-30T06:55:12.592Z,11.70
2022-11-30T06:55:54.244Z,11.43
2022-11-30T06:56:35.872Z,12.43
2022-11-30T06:57:17.663Z,12.52
2022-11-30T06:58:09.710Z,11.77
2022-11-30T06:58:52.446Z,12.43
2022-11-30T06:59:34.156Z,12.20
2022-11-30T07:00:16.659Z,12.18
2022-11-30T07:00:58.336Z,12.60
2022-11-30T07:01:39.992Z,11.07
2022-11-30T07:02:21.950Z,11.32
2022-11-30T07:03:05.195Z,11.00
2022-11-30T07:03:46.993Z,11.75
2022-11-30T07:04:28.892Z,10.98
2022-11-30T07:05:10.572Z,11.15
2022-11-30T07:05:52.251Z,11.30
2022-11-30T07:06:33.870Z,11.57
2022-11-30T07:07:16.266Z,11.65
2022-11-30T07:07:58.127Z,12.18
2022-11-30T07:08:40.585Z,11.93
2022-11-30T07:09:22.187Z,12.20
2022-11-30T07:10:04.026Z,12.27
2022-11-30T07:10:47.383Z,11.88
2022-11-30T07:11:29.036Z,12.23
2022-11-30T07:12:11.794Z,11.57
2022-11-30T07:12:53.539Z,12.60
2022-11-30T07:13:35.422Z,12.30
2022-11-30T07:14:17.084Z,12.20
2022-11-30T07:14:58.757Z,12.95
2022-11-30T07:15:41.602Z,12.20
2022-11-30T07:16:23.335Z,12.57
2022-11-30T07:17:05.012Z,13.13
2022-11-30T07:17:46.742Z,12.60
2022-11-30T07:18:31.935Z,12.80
2022-11-30T07:19:14.201Z,11.80
2022-11-30T07:19:55.856Z,12.27
2022-11-30T07:20:38.353Z,10.88
2022-11-30T07:21:20.028Z,11.73
2022-11-30T07:22:02.280Z,12.38
2022-11-30T07:22:43.925Z,12.07
2022-11-30T07:23:44.199Z,11.85
2022-11-30T07:24:44.311Z,10.43
2022-11-30T07:25:44.389Z,11.27
2022-11-30T07:26:26.294Z,11.02
2022-11-30T07:27:07.949Z,14.63
2022-11-30T07:27:49.597Z,13.52
2022-11-30T07:28:31.265Z,15.18
2022-11-30T07:29:13.003Z,17.92
2022-11-30T07:29:54.821Z,15.02
2022-11-30T07:30:36.561Z,13.80
2022-11-30T07:31:24.165Z,15.13
2022-11-30T07:32:05.943Z,15.35
2022-11-30T07:32:47.584Z,14.27
2022-11-30T07:33:31.450Z,13.95
2022-11-30T07:34:13.386Z,14.30
2022-11-30T07:34:55.143Z,14.68
2022-11-30T07:35:36.850Z,13.32
2022-11-30T07:36:20.933Z,14.43
2022-11-30T07:37:02.623Z,13.55
2022-11-30T07:37:44.285Z,14.38
2022-11-30T07:38:25.906Z,15.25
2022-11-30T07:39:07.617Z,14.35
2022-11-30T07:39:49.283Z,12.85
2022-11-30T07:40:31.295Z,13.25
2022-11-30T07:41:13.525Z,13.73
2022-11-30T07:41:55.283Z,13.95
2022-11-30T07:42:37.049Z,14.43
2022-11-30T07:43:18.740Z,15.38
2022-11-30T07:44:00.477Z,13.73
2022-11-30T07:44:42.306Z,14.80
2022-11-30T07:45:24.089Z,15.00
2022-11-30T07:46:06.484Z,16.63
2022-11-30T07:46:48.229Z,16.42
2022-11-30T07:47:29.848Z,16.38
2022-11-30T07:48:11.591Z,16.65
2022-11-30T07:48:53.316Z,17.27
2022-11-30T07:49:35.010Z,15.95
2022-11-30T07:50:16.730Z,15.32
2022-11-30T07:51:18.869Z,15.75
2022-11-30T07:52:00.598Z,15.50
2022-11-30T07:52:42.520Z,15.60
2022-11-30T07:53:24.187Z,15.80
2022-11-30T07:54:06.179Z,17.15
2022-11-30T07:54:48.271Z,15.98
2022-11-30T07:55:31.034Z,16.05
2022-11-30T07:56:20.586Z,16.80
2022-11-30T07:57:02.659Z,16.13
2022-11-30T07:57:44.347Z,16.63
2022-11-30T07:58:26.005Z,16.67
2022-11-30T07:59:07.947Z,22.65
2022-11-30T07:59:49.858Z,21.75
2022-11-30T08:00:32.061Z,17.77
2022-11-30T08:01:19.185Z,59.53
2022-11-30T08:02:01.180Z,23.60
2022-11-30T08:02:43.007Z,35.88
2022-11-30T08:03:33.635Z,32.72
2022-11-30T08:04:18.296Z,31.52
2022-11-30T08:05:00.115Z,19.20
2022-11-30T08:05:41.913Z,20.25
2022-11-30T08:06:26.221Z,17.80
2022-11-30T08:07:07.969Z,17.05
2022-11-30T08:07:55.926Z,15.95
2022-11-30T08:08:43.642Z,17.75
2022-11-30T08:09:25.294Z,25.75
2022-11-30T08:10:07.710Z,29.48
2022-11-30T08:10:49.396Z,21.48
2022-11-30T08:11:34.064Z,24.42
2022-11-30T08:12:15.739Z,39.80
2022-11-30T08:12:57.396Z,18.20
2022-11-30T08:13:39.254Z,38.97
2022-11-30T08:14:20.951Z,19.48
2022-11-30T08:15:20.302Z,19.38
2022-11-30T08:16:11.328Z,19.13
2022-11-30T08:16:53.270Z,18.42
2022-11-30T08:17:35.019Z,18.77
2022-11-30T08:18:16.788Z,17.65
2022-11-30T08:18:58.658Z,18.30
2022-11-30T08:19:40.444Z,21.17
2022-11-30T08:20:22.632Z,18.73
2022-11-30T08:21:06.051Z,16.40
2022-11-30T08:21:47.911Z,15.48
2022-11-30T08:22:30.021Z,14.65
2022-11-30T08:23:12.460Z,14.00
2022-11-30T08:23:56.582Z,14.02
2022-11-30T08:24:38.284Z,13.38
2022-11-30T08:25:20.000Z,12.77
2022-11-30T08:26:07.748Z,15.68
2022-11-30T08:26:51.997Z,13.88
2022-11-30T08:27:33.680Z,14.23
2022-11-30T08:28:15.410Z,14.05
2022-11-30T08:28:59.157Z,14.85
2022-11-30T08:29:40.964Z,14.25
2022-11-30T08:30:25.297Z,16.25
2022-11-30T08:31:16.969Z,14.38
2022-11-30T08:31:58.701Z,13.45
2022-11-30T08:32:40.466Z,12.90
2022-11-30T08:33:22.088Z,11.95
2022-11-30T08:34:06.596Z,13.45
2022-11-30T08:34:48.694Z,12.75
2022-11-30T08:35:30.596Z,16.00
2022-11-30T08:36:14.880Z,18.42
2022-11-30T08:36:56.537Z,16.48
2022-11-30T08:37:38.537Z,14.98
2022-11-30T08:38:20.286Z,15.95
2022-11-30T08:39:04.886Z,15.38
2022-11-30T08:39:46.609Z,15.75
2022-11-30T08:40:28.340Z,14.93
2022-11-30T08:41:11.990Z,14.65
2022-11-30T08:41:53.753Z,13.85
2022-11-30T08:42:35.459Z,14.55
2022-11-30T08:43:17.167Z,13.45
2022-11-30T08:43:58.960Z,12.70
2022-11-30T08:44:40.641Z,12.73
2022-11-30T08:45:22.353Z,12.90
2022-11-30T08:46:16.145Z,12.35
2022-11-30T08:47:07.687Z,13.55
2022-11-30T08:47:49.475Z,15.70
2022-11-30T08:48:31.220Z,14.90
2022-11-30T08:49:22.185Z,12.48
2022-11-30T08:50:05.512Z,13.68
2022-11-30T08:50:47.519Z,12.60
2022-11-30T08:51:42.150Z,11.95
2022-11-30T08:52:30.972Z,12.27
2022-11-30T08:53:12.781Z,11.88
2022-11-30T08:53:54.458Z,12.23
2022-11-30T08:54:36.475Z,13.07
2022-11-30T08:55:18.125Z,13.15
2022-11-30T08:56:02.477Z,13.45
2022-11-30T08:56:44.217Z,12.13
2022-11-30T08:57:26.776Z,13.43
2022-11-30T08:58:08.563Z,12.55
2022-11-30T08:58:50.890Z,12.25
2022-11-30T08:59:32.597Z,11.65
2022-11-30T09:00:14.942Z,11.77
2022-11-30T09:01:13.242Z,11.35
2022-11-30T09:01:54.974Z,11.63
2022-11-30T09:02:37.225Z,11.82
2022-11-30T09:03:19.145Z,11.35
2022-11-30T09:04:00.891Z,10.25
2022-11-30T09:04:42.651Z,10.63
2022-11-30T09:05:24.578Z,10.95
2022-11-30T09:06:16.555Z,11.02
2022-11-30T09:06:59.490Z,10.85
2022-11-30T09:07:41.589Z,11.57
2022-11-30T09:08:23.436Z,12.07
2022-11-30T09:09:05.141Z,12.63
2022-11-30T09:09:46.908Z,11.80
2022-11-30T09:10:28.748Z,11.32
2022-11-30T09:11:13.025Z,13.13
2022-11-30T09:11:54.820Z,13.60
2022-11-30T09:12:39.077Z,14.25
2022-11-30T09:13:20.814Z,13.65
2022-11-30T09:14:09.042Z,13.35
2022-11-30T09:14:57.311Z,11.82
2022-11-30T09:15:39.799Z,12.40
2022-11-30T09:16:22.152Z,10.98
2022-11-30T09:17:04.190Z,11.07
2022-11-30T09:17:45.877Z,11.57
2022-11-30T09:18:27.606Z,12.30